Flight Track Log - Related Links

Times and Time Zones

All times are in EST time to prevent confusion due to time zone crossing. See the N5LK flight status page for this flight to view local times or setup timezone preferences in your user account.


Time Position Orientation Groundspeed Altitude Reporting Facility
EST Latitude Longitude Course Direction KTS MPH feet Rate Location/Type
Sat 06:17:29 PM 24.6220 -81.7991 360° North  Level FlightAware Approximate
Sat 06:17:32 PM 24.7858 -81.7997 327° Northwest 255 293 8,000  Level Miami Center
Sat 06:18:32 PM 24.8389 -81.8383 326° Northwest 242 278 9,700 1,438 Climbing Miami Center
Sat 06:19:33 PM 24.8919 -81.8772 330° Northwest 235 270 10,900 1,200 Climbing Miami Center
Sat 06:20:32 PM 24.9489 -81.9139 330° Northwest 235 270 12,100 1,261 Climbing Miami Center
Sat 06:21:32 PM 25.0061 -81.9506 331° Northwest 235 270 13,400 1,240 Climbing Miami Center
Sat 06:22:33 PM 25.0656 -81.9872 330° Northwest 240 276 14,600 1,240 Climbing Miami Center
Sat 06:23:33 PM 25.1206 -82.0217 330° Northwest 240 276 15,900 1,361 Climbing Miami Center
Sat 06:24:32 PM 25.1778 -82.0586 330° Northwest 240 276 17,300 1,059 Climbing Miami Center
Sat 06:25:32 PM 25.2308 -82.0931 332° Northwest 235 270 18,000 793 Climbing Miami Center
Sat 06:26:33 PM 25.2842 -82.1250 330° Northwest 229 264 18,900 942 Climbing Miami Center
Sat 06:27:33 PM 25.3372 -82.1594 331° Northwest 229 264 19,900 908 Climbing Miami Center
Sat 06:28:32 PM 25.4025 -82.1992 330° Northwest 229 264 20,700 807 Climbing Miami Center
Sat 06:29:32 PM 25.4575 -82.2339 329° Northwest 229 264 21,500 744 Climbing Miami Center
Sat 06:30:33 PM 25.5167 -82.2733 330° Northwest 229 264 22,200 650 Climbing Miami Center
Sat 06:31:32 PM 25.5739 -82.3103 331° Northwest 234 269 22,800 605 Climbing Miami Center
Sat 06:32:32 PM 25.6350 -82.3478 329° Northwest 240 276 23,400 645 Climbing Miami Center
Sat 06:33:33 PM 25.6942 -82.3872 331° Northwest 247 284 24,100 645 Climbing Miami Center
Sat 06:34:33 PM 25.7553 -82.4247 331° Northwest 247 284 24,700 550 Climbing Miami Center
Sat 06:35:33 PM 25.8164 -82.4619 327° Northwest 247 284 25,200 555 Climbing Miami Center
Sat 06:36:32 PM 25.8775 -82.5064 332° Northwest 247 284 25,800 555 Climbing Miami Center
Sat 06:37:32 PM 25.9325 -82.5389 329° Northwest 247 284 26,300 500 Climbing Miami Center
Sat 06:38:32 PM 25.9956 -82.5814 330° Northwest 247 284 26,800 550 Climbing Miami Center
Sat 06:39:32 PM 26.0586 -82.6211 332° Northwest 252 290 27,400 600 Climbing Miami Center
Sat 06:40:32 PM 26.1219 -82.6589 330° Northwest 252 290 28,000 550 Climbing Miami Center
Sat 06:41:32 PM 26.1869 -82.7014 328° Northwest 257 296 28,500 500 Climbing Miami Center
Sat 06:42:32 PM 26.2519 -82.7464 331° Northwest 263 303 29,000 450 Climbing Miami Center
Sat 06:43:32 PM 26.3131 -82.7842 330° Northwest 263 303 29,400 446 Climbing Miami Center
Sat 06:44:33 PM 26.3803 -82.8269 330° Northwest 263 303 29,900 450 Climbing Miami Center
Sat 06:45:32 PM 26.4472 -82.8697 330° Northwest 263 303 30,300 600 Climbing Miami Center
Sat 06:46:33 PM 26.5103 -82.9100 328° Northwest 263 303 31,100 600 Climbing Miami Center
Sat 06:47:32 PM 26.5711 -82.9525 331° Northwest 263 303 31,500 454 Climbing Miami Center
Sat 06:48:32 PM 26.6361 -82.9931 330° Northwest 263 303 32,000 400 Climbing Miami Center
Sat 06:49:32 PM 26.6992 -83.0336 330° Northwest 263 303 32,300 350 Climbing Miami Center
Sat 06:50:32 PM 26.7642 -83.0764 329° Northwest 263 303 32,700 350 Climbing Miami Center
Sat 06:51:32 PM 26.8292 -83.1194 330° Northwest 263 303 33,000 350 Climbing Miami Center
Sat 06:52:32 PM 26.8961 -83.1625 330° Northwest 263 303 33,400 650 Climbing Miami Center
Sat 06:53:32 PM 26.9589 -83.2033 327° Northwest 263 303 34,300 700 Climbing Miami Center
Sat 06:54:32 PM 27.0175 -83.2461 331° Northwest 263 303 34,800 450 Climbing Miami Center
Sat 06:55:32 PM 27.0783 -83.2844 331° Northwest 258 297 35,200 347 Climbing Miami Center
Sat 06:56:33 PM 27.1394 -83.3228 329° Northwest 253 291 35,500 350 Climbing Miami Center
Sat 06:57:32 PM 27.2000 -83.3636 328° Northwest 253 291 35,900 403 Climbing Miami Center
Sat 06:58:32 PM 27.2608 -83.4067 331° Northwest 253 291 36,300 347 Climbing Miami Center
Sat 06:59:33 PM 27.3256 -83.4478 331° Northwest 253 291 36,600 300 Climbing Miami Center
Sat 07:00:32 PM 27.3886 -83.4864 329° Northwest 258 297 36,900 300 Climbing Miami Center
Sat 07:01:33 PM 27.4492 -83.5272 329° Northwest 258 297 37,200 250 Climbing Miami Center
Sat 07:02:32 PM 27.5139 -83.5708 330° Northwest 264 304 37,400 353 Climbing Miami Center
Sat 07:03:32 PM 27.5767 -83.6119 329° Northwest 264 304 37,900 300 Climbing Miami Center
Sat 07:04:32 PM 27.6414 -83.6556 330° Northwest 264 304 38,000 50 Climbing Miami Center
Sat 07:05:33 PM 27.7042 -83.6967 329° Northwest 264 304 38,000  Level Miami Center
Sat 07:06:32 PM 27.7686 -83.7406 330° Northwest 264 304 38,000  Level Miami Center
Sat 07:07:32 PM 27.8353 -83.7844 329° Northwest 264 304 38,000  Level Miami Center
Sat 07:08:32 PM 27.9042 -83.8308 329° Northwest 264 304 38,000  Level Miami Center
Sat 07:10:11 PM 28.0186 -83.9081 330° Northwest 292 336 38,000  Level Jacksonville Center
Sat 07:11:11 PM 28.0872 -83.9536 333° Northwest 292 336 38,000  Level Jacksonville Center
Sat 07:12:11 PM 28.1536 -83.9919 329° Northwest 284 327 38,000  Level Jacksonville Center
Sat 07:13:11 PM 28.2242 -84.0397 327° Northwest 278 320 38,000  Level Jacksonville Center
Sat 07:14:11 PM 28.2967 -84.0925 330° Northwest 297 342 38,000  Level Jacksonville Center
Sat 07:15:11 PM 28.3650 -84.1381 328° Northwest 297 342 38,000  Level Jacksonville Center
Sat 07:16:11 PM 28.4356 -84.1886 330° Northwest 302 348 38,000  Level Jacksonville Center
Sat 07:17:11 PM 28.5061 -84.2344 330° Northwest 297 342 38,000  Level Jacksonville Center
Sat 07:18:11 PM 28.5744 -84.2803 330° Northwest 297 342 38,000  Level Jacksonville Center
Sat 07:19:11 PM 28.6469 -84.3286 329° Northwest 297 342 38,000  Level Jacksonville Center
Sat 07:20:11 PM 28.7131 -84.3744 330° Northwest 297 342 38,000  Level Jacksonville Center
Sat 07:21:11 PM 28.7836 -84.4206 328° Northwest 297 342 38,000  Level Jacksonville Center
Sat 07:22:11 PM 28.8561 -84.4714 329° Northwest 297 342 38,000  Level Jacksonville Center
Sat 07:23:11 PM 28.9264 -84.5200 330° Northwest 297 342 38,000  Level Jacksonville Center
Sat 07:24:11 PM 28.9967 -84.5661 329° Northwest 297 342 38,000  Level Jacksonville Center
Sat 07:25:11 PM 29.0669 -84.6150 330° Northwest 297 342 38,000  Level Jacksonville Center
Sat 07:26:11 PM 29.1394 -84.6636 329° Northwest 297 342 38,000  Level Jacksonville Center
Sat 07:27:10 PM 29.2097 -84.7125 329° Northwest 297 342 38,000  Level Jacksonville Center
Sat 07:28:10 PM 29.2800 -84.7614 329° Northwest 297 342 38,000  Level Jacksonville Center
Sat 07:29:10 PM 29.3503 -84.8106 328° Northwest 297 342 38,000  Level Jacksonville Center
Sat 07:30:10 PM 29.4206 -84.8619 331° Northwest 297 342 38,000  Level Jacksonville Center
Sat 07:31:10 PM 29.4950 -84.9086 329° Northwest 297 342 38,000  Level Jacksonville Center
Sat 07:32:10 PM 29.5672 -84.9581 327° Northwest 297 342 38,000  Level Jacksonville Center
Sat 07:33:10 PM 29.6372 -85.0097 329° Northwest 297 342 38,000  Level Jacksonville Center
Sat 07:34:10 PM 29.7094 -85.0589 328° Northwest 297 342 38,000  Level Jacksonville Center
Sat 07:35:10 PM 29.7817 -85.1108 329° Northwest 297 342 38,000  Level Jacksonville Center
Sat 07:36:10 PM 29.8539 -85.1603 329° Northwest 297 342 38,000  Level Jacksonville Center
Sat 07:37:10 PM 29.9261 -85.2100 328° Northwest 297 342 38,000  Level Jacksonville Center
Sat 07:38:10 PM 29.9961 -85.2597 329° Northwest 297 342 38,000  Level Jacksonville Center
Sat 07:39:10 PM 30.0683 -85.3094 330° Northwest 297 342 38,000  Level Jacksonville Center
Sat 07:40:10 PM 30.1383 -85.3569 323° Northwest 297 342 38,000  Level Jacksonville Center
Sat 07:41:10 PM 30.2142 -85.4236 337° Northwest 302 348 38,000  Level Jacksonville Center
Sat 07:42:10 PM 30.2803 -85.4567 328° Northwest 302 348 38,000  Level Jacksonville Center
Sat 07:43:10 PM 30.3525 -85.5092 328° Northwest 302 348 38,000  Level Jacksonville Center
Sat 07:44:10 PM 30.4222 -85.5592 329° Northwest 297 342 38,000  Level Jacksonville Center
Sat 07:45:10 PM 30.4944 -85.6094 327° Northwest 297 342 38,000  Level Jacksonville Center
Sat 07:46:10 PM 30.5622 -85.6597 330° Northwest 297 342 38,000  Level Jacksonville Center
Sat 07:47:10 PM 30.6361 -85.7100 329° Northwest 297 342 38,000  Level Jacksonville Center
Sat 07:48:10 PM 30.7081 -85.7606 327° Northwest 297 342 38,000  Level Jacksonville Center
Sat 07:49:10 PM 30.7758 -85.8108 328° Northwest 297 342 38,000  Level Jacksonville Center
Sat 07:50:10 PM 30.8478 -85.8639 329° Northwest 297 342 38,000  Level Jacksonville Center
Sat 07:52:32 PM 31.0217 -85.9867 327° Northwest 301 346 38,000  Level Atlanta Center
Sat 07:53:32 PM 31.0939 -86.0417 329° Northwest 301 346 38,000  Level Atlanta Center
Sat 07:54:32 PM 31.1661 -86.0917 327° Northwest 301 346 38,000  Level Atlanta Center
Sat 07:55:32 PM 31.2361 -86.1444 329° Northwest 301 346 38,000 -600 Level Atlanta Center
Sat 07:56:32 PM 31.3103 -86.1972 329° Northwest 301 346 36,800 -1,150 Descending Atlanta Center
Sat 07:57:32 PM 31.3908 -86.2550 328° Northwest 328 377 35,700 -1,000 Descending Atlanta Center
Sat 07:58:32 PM 31.4711 -86.3128 328° Northwest 340 391 34,800 -950 Descending Atlanta Center
Sat 07:59:32 PM 31.5514 -86.3708 328° Northwest 340 391 33,800 -900 Descending Atlanta Center
Sat 08:00:32 PM 31.6214 -86.4214 328° Northwest 340 391 33,000 -900 Descending Atlanta Center
Sat 08:01:32 PM 31.7017 -86.4797 328° Northwest 340 391 32,000 -1,000 Descending Atlanta Center
Sat 08:02:32 PM 31.7797 -86.5381 329° Northwest 335 386 31,000 -1,200 Descending Atlanta Center
Sat 08:03:32 PM 31.8581 -86.5939 328° Northwest 340 391 29,600 -1,450 Descending Atlanta Center
Sat 08:04:32 PM 31.9381 -86.6525 328° Northwest 340 391 28,100 -1,500 Descending Atlanta Center
Sat 08:05:32 PM 32.0203 -86.7139 328° Northwest 333 383 26,600 -1,500 Descending Atlanta Center
Sat 08:06:32 PM 32.0942 -86.7675 328° Northwest 311 358 25,100 -1,500 Descending Atlanta Center
Sat 08:07:32 PM 32.1683 -86.8214 328° Northwest 311 358 23,600 -1,450 Descending Atlanta Center
Sat 08:08:32 PM 32.2400 -86.8750 327° Northwest 311 358 22,200 -1,450 Descending Atlanta Center
Sat 08:09:32 PM 32.3078 -86.9264 329° Northwest 300 345 20,700 -1,500 Descending Atlanta Center
Sat 08:10:32 PM 32.3775 -86.9753 328° Northwest 295 339 19,200 -1,300 Descending Atlanta Center
Sat 08:11:32 PM 32.4431 -87.0244 326° Northwest 295 339 18,100 -600 Descending Atlanta Center
Sat 08:12:32 PM 32.4983 -87.0681 329° Northwest 282 325 18,000 -600 Descending Atlanta Center
Sat 08:13:32 PM 32.5661 -87.1172 329° Northwest 276 318 16,900 -1,400 Descending Atlanta Center
Sat 08:14:32 PM 32.6378 -87.1689 318° Northwest 281 323 15,200 -1,852 Descending Atlanta Center
Sat 08:14:53 PM 32.6642 -87.1972 336° Northwest 297 342 14,400 -1,900 Descending Atlanta Center
Sat 08:15:32 PM 32.7033 -87.2183 322° Northwest 281 323 13,300 -1,964 Descending Atlanta Center
Sat 08:15:48 PM 32.7278 -87.2414 330° Northwest 286 329 12,600 -1,900 Descending Atlanta Center
Sat 08:16:32 PM 32.7689 -87.2700 325° Northwest 276 318 11,400 -1,869 Descending Atlanta Center
Sat 08:16:49 PM 32.7933 -87.2906 332° Northwest 281 323 10,700 -2,000 Descending Atlanta Center
Sat 08:17:32 PM 32.8344 -87.3169 316° Northwest 276 318 9,400 -2,000 Descending Atlanta Center
Sat 08:17:49 PM 32.8567 -87.3425 335° Northwest 269 310 8,700 -1,900 Descending Atlanta Center
Sat 08:18:32 PM 32.8997 -87.3664 314° West 266 306 7,500 -1,869 Descending Atlanta Center
Sat 08:18:50 PM 32.9139 -87.3842 334° Northwest 243 280 6,800 -2,000 Descending Atlanta Center
Sat 08:19:32 PM 32.9550 -87.4081 318° Northwest 246 283 5,500 -2,000 Descending Atlanta Center
Sat 08:19:50 PM 32.9692 -87.4233 333° Northwest 224 258 4,800 -1,700 Descending Atlanta Center
Sat 08:20:32 PM 32.9958 -87.4394 322° Northwest 226 260 3,800 -1,869 Descending Atlanta Center
Sat 08:20:51 PM 33.0203 -87.4625 316° Northwest 219 252 2,900 -837 Descending Atlanta Center
Sat 08:21:58 PM 33.0628 -87.5114 310° West 191 220 2,600 -226 Descending Atlanta Center
Sat 08:23:04 PM 33.0969 -87.5597 325° Northwest 172 198 2,400  Descending Atlanta Center
Sat 08:23:32 PM 33.1317 -87.5886 295° West 299 344 2,600 -873 Climbing Atlanta Center
Sat 08:23:59 PM 33.1336 -87.5936 315° West 184 212 1,600 -682 Descending Atlanta Center
Sat 08:25:00 PM 33.1678 -87.6347 315° West 187 215 1,600  Level Atlanta Center

Login

Don't have an account? Register now (free) for customized features, flight alerts, and more!